Time;durP1;ratioP1;P1;durP2;ratioP2;P2;SDS_P1;SDS_P2;PMS_P1;PMS_P2;Temp;Humidity;BMP_temperature;BMP_pressure;BME280_temperature;BME280_humidity;BME280_pressure;Samples;Min_cycle;Max_cycle;Signal;HPM_P1;HPM_P2
2021/01/18 00:00:12;;;;;;;14.03;9.53;;;0.60;99.90;;;;;;5035842;28;20206;-75
2021/01/18 00:02:39;;;;;;;11.30;10.13;;;0.60;99.90;;;;;;5035919;28;21658;-75
2021/01/18 00:05:06;;;;;;;12.47;10.57;;;0.60;99.90;;;;;;5017922;28;20198;-75
2021/01/18 00:07:42;;;;;;;12.23;11.00;;;0.70;99.90;;;;;;5035569;28;20190;-75
2021/01/18 00:10:11;;;;;;;13.50;10.90;;;0.70;99.90;;;;;;5035898;28;20185;-75
2021/01/18 00:12:37;;;;;;;13.27;11.30;;;0.70;99.90;;;;;;5017826;28;20560;-75
2021/01/18 00:15:05;;;;;;;14.63;11.67;;;0.80;99.90;;;;;;5035744;28;20206;-75
2021/01/18 00:17:32;;;;;;;14.77;11.33;;;0.70;99.90;;;;;;5035067;28;20213;-75
2021/01/18 00:19:58;;;;;;;14.00;10.93;;;0.70;99.90;;;;;;5034767;28;20175;-75
2021/01/18 00:22:24;;;;;;;12.03;10.77;;;0.70;99.90;;;;;;5035968;28;20189;-74
2021/01/18 00:24:50;;;;;;;16.57;11.10;;;0.70;99.90;;;;;;5035508;28;20249;-75
2021/01/18 00:27:16;;;;;;;14.67;10.63;;;0.70;99.90;;;;;;5031480;28;20183;-75
2021/01/18 00:29:41;;;;;;;14.83;11.30;;;0.80;99.90;;;;;;5030771;28;20620;-75
2021/01/18 00:32:07;;;;;;;12.90;11.60;;;0.70;99.90;;;;;;5017438;28;20229;-75
2021/01/18 00:34:32;;;;;;;13.43;11.43;;;0.70;99.90;;;;;;5035159;28;20234;-75
2021/01/18 00:36:58;;;;;;;14.20;10.87;;;0.80;99.90;;;;;;5034937;28;20229;-75
2021/01/18 00:39:24;;;;;;;13.53;11.60;;;0.70;99.90;;;;;;5034940;28;20189;-75
2021/01/18 00:41:49;;;;;;;14.33;11.37;;;0.80;99.90;;;;;;5034993;28;20268;-75
2021/01/18 00:44:15;;;;;;;11.43;10.27;;;0.80;99.90;;;;;;5035157;28;20198;-75
2021/01/18 00:46:45;;;;;;;12.30;10.50;;;0.80;99.90;;;;;;5034801;28;20193;-75
2021/01/18 00:49:11;;;;;;;15.70;11.77;;;0.90;99.90;;;;;;5035178;28;20225;-75
2021/01/18 00:51:38;;;;;;;17.63;11.43;;;0.90;99.90;;;;;;5035206;28;20190;-75
2021/01/18 00:54:04;;;;;;;12.70;10.53;;;0.90;99.90;;;;;;5016057;28;20207;-75
2021/01/18 00:56:30;;;;;;;18.23;11.80;;;0.90;99.90;;;;;;5034948;28;20197;-75
2021/01/18 00:58:57;;;;;;;14.43;11.53;;;1.00;99.90;;;;;;5035016;28;20621;-76
2021/01/18 01:01:22;;;;;;;13.30;11.40;;;0.90;99.90;;;;;;5034601;28;20200;-75
2021/01/18 01:03:49;;;;;;;14.23;11.30;;;0.90;99.90;;;;;;5034808;28;20221;-75
2021/01/18 01:06:15;;;;;;;15.50;12.27;;;1.00;99.90;;;;;;5034580;28;20620;-75
2021/01/18 01:08:40;;;;;;;16.87;12.20;;;1.00;99.90;;;;;;5034408;28;20190;-75
2021/01/18 01:11:06;;;;;;;19.33;12.47;;;1.00;99.90;;;;;;5034275;28;20256;-75
2021/01/18 01:13:32;;;;;;;18.17;12.83;;;1.00;99.90;;;;;;5034656;28;20193;-75
2021/01/18 01:15:58;;;;;;;17.53;12.50;;;1.00;99.90;;;;;;5034451;28;20174;-76
2021/01/18 01:18:23;;;;;;;19.07;13.50;;;1.00;99.90;;;;;;5034404;28;20554;-75
2021/01/18 01:20:50;;;;;;;18.37;14.03;;;1.10;99.90;;;;;;5034567;28;20183;-75
2021/01/18 01:23:16;;;;;;;19.90;13.97;;;1.10;99.90;;;;;;5034263;28;20253;-75
2021/01/18 01:25:42;;;;;;;17.53;13.57;;;1.10;99.90;;;;;;5034018;28;20249;-75
2021/01/18 01:28:08;;;;;;;20.43;13.47;;;1.20;99.90;;;;;;5007665;28;20619;-75
2021/01/18 01:30:34;;;;;;;19.07;13.40;;;1.10;99.90;;;;;;5033438;28;20186;-75
2021/01/18 01:33:00;;;;;;;16.37;13.03;;;1.10;99.90;;;;;;5033988;28;20186;-75
2021/01/18 01:35:27;;;;;;;17.10;12.67;;;1.10;99.90;;;;;;5034201;28;20217;-75
2021/01/18 01:37:54;;;;;;;16.10;12.90;;;1.10;99.90;;;;;;5034041;28;20252;-75
2021/01/18 01:40:20;;;;;;;15.83;13.20;;;1.10;99.90;;;;;;5033820;28;20178;-76
2021/01/18 01:42:46;;;;;;;18.67;13.10;;;1.20;99.90;;;;;;5033628;28;20174;-75
2021/01/18 01:45:14;;;;;;;13.33;11.87;;;1.20;99.90;;;;;;5034070;28;20259;-75
2021/01/18 01:47:53;;;;;;;17.27;13.00;;;1.20;99.90;;;;;;5034003;28;20258;-75
2021/01/18 01:50:23;;;;;;;18.87;13.07;;;1.20;99.90;;;;;;5033673;28;20178;-75
2021/01/18 01:52:53;;;;;;;17.87;13.13;;;1.20;99.90;;;;;;5033693;28;20197;-75
2021/01/18 01:55:26;;;;;;;20.03;12.97;;;1.30;99.90;;;;;;5033624;28;20281;-75
2021/01/18 01:57:53;;;;;;;16.93;12.30;;;1.20;99.90;;;;;;5033530;28;20190;-75
2021/01/18 02:00:22;;;;;;;18.23;12.47;;;1.30;99.90;;;;;;5033855;28;20171;-75
2021/01/18 02:02:49;;;;;;;16.90;12.20;;;1.30;99.90;;;;;;5033246;28;20170;-75
2021/01/18 02:05:15;;;;;;;15.17;12.63;;;1.30;99.90;;;;;;5033349;28;20194;-75
2021/01/18 02:07:42;;;;;;;14.57;12.10;;;1.30;99.90;;;;;;5015926;28;20240;-76
2021/01/18 02:10:09;;;;;;;17.13;12.23;;;1.30;99.90;;;;;;5033663;28;20261;-75
2021/01/18 02:12:35;;;;;;;18.93;11.70;;;1.30;99.90;;;;;;5033349;28;20301;-76
2021/01/18 02:15:11;;;;;;;15.47;12.27;;;1.30;99.90;;;;;;5033341;28;20194;-75
2021/01/18 02:17:58;;;;;;;15.70;11.93;;;1.30;99.90;;;;;;5033295;28;20200;-75
2021/01/18 02:20:51;;;;;;;15.87;12.23;;;1.30;99.90;;;;;;5015652;28;20175;-75
2021/01/18 02:23:44;;;;;;;17.63;12.60;;;1.30;99.90;;;;;;5033244;28;20186;-75
2021/01/18 02:26:10;;;;;;;17.87;12.40;;;1.30;99.90;;;;;;5033468;28;20186;-75
2021/01/18 02:29:23;;;;;;;17.87;12.30;;;1.30;99.90;;;;;;5006925;28;20660;-75
2021/01/18 02:31:58;;;;;;;19.13;12.90;;;1.30;99.90;;;;;;4971324;28;20176;-76
2021/01/18 02:34:46;;;;;;;18.60;12.60;;;1.30;99.90;;;;;;5019426;28;20244;-75
2021/01/18 02:37:42;;;;;;;14.90;11.63;;;1.30;99.90;;;;;;5015300;28;20289;-76
2021/01/18 02:40:47;;;;;;;13.67;12.03;;;1.30;99.90;;;;;;4978306;28;20178;-75
2021/01/18 02:43:17;;;;;;;13.67;11.40;;;1.70;99.90;;;;;;5032752;28;20318;-75
2021/01/18 02:45:46;;;;;;;16.50;12.77;;;1.30;99.90;;;;;;5032895;28;20195;-76
2021/01/18 02:48:13;;;;;;;16.10;11.67;;;1.30;99.90;;;;;;5033267;28;20183;-76
2021/01/18 02:50:41;;;;;;;16.63;12.00;;;1.30;99.90;;;;;;5033142;28;20189;-76
2021/01/18 02:53:08;;;;;;;14.90;11.83;;;1.30;99.90;;;;;;5032908;28;20518;-75
2021/01/18 02:55:34;;;;;;;15.50;12.33;;;1.30;99.90;;;;;;5032937;28;20205;-76
2021/01/18 02:58:03;;;;;;;14.63;11.13;;;1.40;99.90;;;;;;5033100;28;20206;-76
2021/01/18 03:00:35;;;;;;;15.33;10.87;;;1.40;99.90;;;;;;5033170;28;20209;-75
2021/01/18 03:03:19;;;;;;;14.37;10.50;;;1.40;99.90;;;;;;5033133;28;20241;-75
2021/01/18 03:06:06;;;;;;;13.43;10.90;;;1.40;99.90;;;;;;5033027;28;20174;-76
2021/01/18 03:08:39;;;;;;;14.03;9.70;;;1.40;99.90;;;;;;5033190;28;20201;-76
2021/01/18 03:11:23;;;;;;;13.73;10.87;;;1.30;99.90;;;;;;5032651;28;20179;-76
2021/01/18 03:14:03;;;;;;;14.90;10.10;;;1.40;99.90;;;;;;5032134;28;20198;-75
2021/01/18 03:16:38;;;;;;;11.93;10.60;;;1.30;99.90;;;;;;5016184;28;20213;-75
2021/01/18 03:19:06;;;;;;;13.93;9.67;;;1.30;99.90;;;;;;5036965;28;20208;-75
2021/01/18 03:21:33;;;;;;;12.53;9.60;;;1.30;99.90;;;;;;5036782;28;20170;-75
2021/01/18 03:24:02;;;;;;;17.20;10.57;;;1.20;99.90;;;;;;5036935;28;20213;-76
2021/01/18 03:26:27;;;;;;;15.80;9.97;;;1.30;99.90;;;;;;5037412;28;20661;-75
2021/01/18 03:28:54;;;;;;;12.37;9.17;;;1.30;99.90;;;;;;5027789;28;20181;-76
2021/01/18 03:31:20;;;;;;;12.43;9.90;;;1.30;99.90;;;;;;5013249;28;20261;-75
2021/01/18 03:33:46;;;;;;;11.63;8.57;;;1.20;99.90;;;;;;5025729;28;20276;-75
2021/01/18 03:36:12;;;;;;;13.73;9.27;;;1.30;99.90;;;;;;5032159;28;20269;-75
2021/01/18 03:38:38;;;;;;;10.77;9.17;;;1.20;99.90;;;;;;5035223;28;20166;-75
2021/01/18 03:41:04;;;;;;;9.70;8.63;;;1.30;99.90;;;;;;5036163;28;20175;-75
2021/01/18 03:43:30;;;;;;;11.00;8.47;;;1.30;99.90;;;;;;5036357;28;20182;-76
2021/01/18 03:45:56;;;;;;;12.90;9.30;;;1.30;99.90;;;;;;5036322;28;20187;-76
2021/01/18 03:48:22;;;;;;;10.30;8.80;;;1.30;99.90;;;;;;5018776;28;20615;-75
2021/01/18 03:50:49;;;;;;;10.90;8.93;;;1.30;99.90;;;;;;5018269;28;20261;-75
2021/01/18 03:53:16;;;;;;;11.30;8.67;;;1.30;99.90;;;;;;5036190;28;20183;-75
2021/01/18 03:55:41;;;;;;;10.43;8.43;;;1.30;99.90;;;;;;5035708;28;20260;-76
2021/01/18 03:58:07;;;;;;;11.30;8.23;;;1.30;99.90;;;;;;5036063;28;20229;-75
2021/01/18 04:00:35;;;;;;;9.67;8.50;;;1.30;99.90;;;;;;5036091;28;20241;-75
2021/01/18 04:03:02;;;;;;;9.10;8.17;;;1.30;99.90;;;;;;5018003;28;20211;-75
2021/01/18 04:05:28;;;;;;;12.13;8.63;;;1.30;99.90;;;;;;5035696;28;20695;-75
2021/01/18 04:07:55;;;;;;;13.17;8.63;;;1.30;99.90;;;;;;5035648;28;20688;-75
2021/01/18 04:10:28;;;;;;;13.70;8.83;;;1.40;99.90;;;;;;5035900;28;20182;-75
2021/01/18 04:12:56;;;;;;;10.50;8.00;;;1.30;99.90;;;;;;5035558;28;20171;-75
2021/01/18 04:15:23;;;;;;;10.80;8.47;;;1.30;99.90;;;;;;5035541;28;20209;-75
2021/01/18 04:17:51;;;;;;;9.17;8.03;;;1.20;99.90;;;;;;5035681;28;20301;-75
2021/01/18 04:20:18;;;;;;;9.50;7.57;;;1.30;99.90;;;;;;5035488;28;20668;-76
2021/01/18 04:22:52;;;;;;;8.90;8.00;;;1.30;99.90;;;;;;5035642;28;20226;-75
2021/01/18 04:25:20;;;;;;;10.47;8.23;;;1.20;99.90;;;;;;5035092;28;20703;-75
2021/01/18 04:27:51;;;;;;;12.87;8.70;;;1.20;99.90;;;;;;5026135;28;20179;-76
2021/01/18 04:30:19;;;;;;;14.60;7.97;;;1.20;99.90;;;;;;5022069;28;20246;-75
2021/01/18 04:32:56;;;;;;;13.70;8.70;;;1.20;99.90;;;;;;5035505;28;20301;-76
2021/01/18 04:35:24;;;;;;;11.47;8.73;;;1.20;99.90;;;;;;5031586;28;20696;-75
2021/01/18 04:37:51;;;;;;;16.30;8.90;;;1.30;99.90;;;;;;5027987;28;20210;-75
2021/01/18 04:40:21;;;;;;;14.83;8.57;;;1.20;99.90;;;;;;5035030;28;20212;-75
2021/01/18 04:42:48;;;;;;;11.97;8.10;;;1.20;99.90;;;;;;5035242;28;20178;-75
2021/01/18 04:45:19;;;;;;;8.67;7.80;;;1.30;99.90;;;;;;5016948;28;20194;-75
2021/01/18 04:47:47;;;;;;;10.07;8.13;;;1.20;99.90;;;;;;5035295;28;20538;-76
2021/01/18 04:50:17;;;;;;;10.63;8.60;;;1.20;99.90;;;;;;5034916;28;20730;-75
2021/01/18 04:52:54;;;;;;;9.30;7.90;;;1.20;99.90;;;;;;5017164;28;20182;-75
2021/01/18 04:55:43;;;;;;;16.73;8.20;;;1.10;99.90;;;;;;5034727;28;20206;-75
2021/01/18 04:58:16;;;;;;;8.77;7.87;;;1.10;99.90;;;;;;5034728;28;20198;-75
2021/01/18 05:00:45;;;;;;;13.97;8.77;;;1.10;99.90;;;;;;5031555;28;20170;-75
2021/01/18 05:03:24;;;;;;;13.17;8.13;;;1.10;99.90;;;;;;5024191;28;20216;-75
2021/01/18 05:05:50;;;;;;;13.83;8.23;;;1.00;99.90;;;;;;5023875;28;20175;-75
2021/01/18 05:08:53;;;;;;;12.50;8.13;;;1.00;99.90;;;;;;5034232;28;20261;-76
2021/01/18 05:11:19;;;;;;;12.50;8.20;;;1.00;99.90;;;;;;5015321;28;20185;-75
2021/01/18 05:13:45;;;;;;;13.23;9.43;;;0.90;99.90;;;;;;5034662;28;20206;-75
2021/01/18 05:16:12;;;;;;;14.87;8.73;;;1.00;99.90;;;;;;5034523;28;20195;-75
2021/01/18 05:18:40;;;;;;;14.77;9.20;;;0.90;99.90;;;;;;5016684;28;20193;-75
2021/01/18 05:21:07;;;;;;;12.37;8.00;;;1.00;99.90;;;;;;5035002;28;20178;-75
2021/01/18 05:23:43;;;;;;;11.03;8.70;;;1.00;99.90;;;;;;5028846;28;20184;-75
2021/01/18 05:26:20;;;;;;;11.63;9.00;;;1.00;99.90;;;;;;5034215;28;20181;-75
2021/01/18 05:28:46;;;;;;;10.60;7.80;;;1.00;99.90;;;;;;5025624;28;20573;-75
2021/01/18 05:31:28;;;;;;;16.17;9.07;;;1.00;99.90;;;;;;5034419;28;20174;-75
2021/01/18 05:34:02;;;;;;;13.00;8.50;;;1.00;99.90;;;;;;5034020;28;20270;-75
2021/01/18 05:36:46;;;;;;;11.40;8.20;;;1.00;99.90;;;;;;5016203;28;20212;-75
2021/01/18 05:39:18;;;;;;;9.93;8.73;;;1.00;99.90;;;;;;5033883;28;20190;-75
2021/01/18 05:41:45;;;;;;;8.73;7.83;;;1.00;99.90;;;;;;5030747;28;20262;-75
2021/01/18 05:44:11;;;;;;;10.30;8.30;;;1.00;99.90;;;;;;5033651;28;20742;-75
2021/01/18 05:46:39;;;;;;;12.03;8.13;;;1.00;99.90;;;;;;5034108;28;20259;-75
2021/01/18 05:49:11;;;;;;;14.10;8.73;;;1.00;99.90;;;;;;5034039;28;20190;-75
2021/01/18 05:51:37;;;;;;;14.47;8.70;;;0.90;99.90;;;;;;5033800;28;20192;-75
2021/01/18 05:54:04;;;;;;;16.83;7.80;;;0.90;99.90;;;;;;5033612;28;20208;-75
2021/01/18 05:56:42;;;;;;;13.67;8.90;;;0.80;99.90;;;;;;5015371;28;20264;-75
2021/01/18 05:59:12;;;;;;;11.77;8.90;;;0.80;99.90;;;;;;5032751;28;20178;-75
2021/01/18 06:01:39;;;;;;;12.00;9.00;;;0.80;99.90;;;;;;5024192;28;20176;-75
2021/01/18 06:04:19;;;;;;;13.67;8.37;;;0.80;99.90;;;;;;4995037;28;20195;-76
2021/01/18 06:07:20;;;;;;;11.37;8.20;;;0.80;99.90;;;;;;5021294;28;20240;-75
2021/01/18 06:09:48;;;;;;;15.77;9.07;;;0.80;99.90;;;;;;5015686;28;20520;-75
2021/01/18 06:12:24;;;;;;;16.23;9.43;;;0.80;99.90;;;;;;5022376;28;20241;-75
2021/01/18 06:15:08;;;;;;;14.70;9.73;;;0.80;99.90;;;;;;5013275;28;20210;-75
2021/01/18 06:17:41;;;;;;;15.33;9.40;;;0.80;99.90;;;;;;4995062;28;20198;-75
2021/01/18 06:20:09;;;;;;;13.20;8.63;;;0.80;99.90;;;;;;5019761;28;20175;-75
2021/01/18 06:22:35;;;;;;;14.27;9.10;;;0.80;99.90;;;;;;5032958;28;20197;-75
2021/01/18 06:25:12;;;;;;;15.17;9.20;;;0.80;99.90;;;;;;5032322;28;20213;-75
2021/01/18 06:27:37;;;;;;;13.23;9.40;;;0.80;99.90;;;;;;5031130;28;20182;-75
2021/01/18 06:30:04;;;;;;;13.10;9.50;;;0.80;99.90;;;;;;5022519;28;20665;-75
2021/01/18 06:32:32;;;;;;;16.33;9.87;;;0.80;99.90;;;;;;5013503;28;20587;-75
2021/01/18 06:35:03;;;;;;;13.83;9.13;;;0.90;99.90;;;;;;5013506;28;20245;-75
2021/01/18 06:37:34;;;;;;;14.73;9.40;;;0.90;99.90;;;;;;5021862;28;20549;-75
2021/01/18 06:40:05;;;;;;;14.57;9.30;;;0.90;99.90;;;;;;5031747;28;20228;-75
2021/01/18 06:42:31;;;;;;;13.87;9.30;;;0.90;99.90;;;;;;5032825;28;21435;-75
2021/01/18 06:44:58;;;;;;;14.80;9.13;;;0.90;99.90;;;;;;5031502;28;20563;-75
2021/01/18 06:47:26;;;;;;;18.33;9.53;;;0.90;99.90;;;;;;5032949;28;20197;-75
2021/01/18 06:49:54;;;;;;;11.00;8.80;;;0.90;99.90;;;;;;5015302;28;20179;-75
2021/01/18 06:52:32;;;;;;;17.20;9.63;;;0.90;99.90;;;;;;5036038;28;20688;-75
2021/01/18 06:55:12;;;;;;;17.43;10.20;;;0.90;99.90;;;;;;5032184;28;20684;-75
2021/01/18 06:57:46;;;;;;;13.40;9.47;;;0.90;99.90;;;;;;5036935;28;20198;-75
2021/01/18 07:00:17;;;;;;;13.53;9.93;;;0.90;99.90;;;;;;5019252;28;20177;-75
2021/01/18 07:02:53;;;;;;;14.63;9.90;;;0.90;99.90;;;;;;5037191;28;20175;-75
2021/01/18 07:05:46;;;;;;;15.73;8.83;;;0.90;99.90;;;;;;5008413;28;20206;-75
2021/01/18 07:08:21;;;;;;;20.87;9.87;;;0.90;99.90;;;;;;5033484;28;20542;-75
2021/01/18 07:10:50;;;;;;;19.90;9.93;;;0.90;99.90;;;;;;5027707;28;20208;-74
2021/01/18 07:13:20;;;;;;;21.33;10.10;;;0.90;99.90;;;;;;5023497;28;20213;-75
2021/01/18 07:15:50;;;;;;;13.67;10.53;;;0.90;99.90;;;;;;5036831;28;20205;-75
2021/01/18 07:18:18;;;;;;;14.07;9.83;;;0.90;99.90;;;;;;5018828;28;20206;-75
2021/01/18 07:20:47;;;;;;;20.90;9.90;;;1.00;99.90;;;;;;5036705;28;20692;-75
2021/01/18 07:23:13;;;;;;;17.87;10.37;;;1.00;99.90;;;;;;5037632;28;20178;-74
2021/01/18 07:25:47;;;;;;;14.93;10.70;;;1.00;99.90;;;;;;5036190;28;20214;-74
2021/01/18 07:28:20;;;;;;;19.73;10.43;;;0.90;99.90;;;;;;5027937;28;20178;-75
2021/01/18 07:30:46;;;;;;;15.77;11.23;;;1.00;99.90;;;;;;5036940;28;20182;-75
2021/01/18 07:33:13;;;;;;;16.37;10.60;;;1.00;99.90;;;;;;5036527;28;20186;-74
2021/01/18 07:35:40;;;;;;;12.77;9.57;;;1.00;99.90;;;;;;5036272;28;20563;-75
2021/01/18 07:38:12;;;;;;;14.07;9.03;;;1.00;99.90;;;;;;5036472;28;20329;-74
2021/01/18 07:40:38;;;;;;;14.37;9.23;;;1.10;99.90;;;;;;5036434;28;20645;-74
2021/01/18 07:43:04;;;;;;;12.83;8.73;;;1.10;99.90;;;;;;5036158;28;20196;-74
2021/01/18 07:45:30;;;;;;;11.80;8.60;;;1.10;99.90;;;;;;5036264;28;20206;-75
2021/01/18 07:47:55;;;;;;;14.87;9.10;;;1.10;99.90;;;;;;5033070;28;20538;-74
2021/01/18 07:50:39;;;;;;;13.47;9.00;;;1.10;99.90;;;;;;5036773;28;20649;-73
2021/01/18 07:53:08;;;;;;;13.53;9.07;;;1.10;99.90;;;;;;5036100;28;20205;-75
2021/01/18 07:55:35;;;;;;;14.67;9.03;;;1.10;99.90;;;;;;5035517;28;20216;-74
2021/01/18 07:58:17;;;;;;;16.07;9.63;;;1.10;99.90;;;;;;5017925;28;20216;-75
2021/01/18 08:00:45;;;;;;;19.40;10.27;;;1.20;99.90;;;;;;5036012;28;20191;-74
2021/01/18 08:03:10;;;;;;;12.80;8.80;;;1.20;99.90;;;;;;5017098;28;20194;-74
2021/01/18 08:05:38;;;;;;;13.13;8.87;;;1.20;99.90;;;;;;5035698;28;20198;-74
2021/01/18 08:08:04;;;;;;;10.47;8.07;;;1.20;99.90;;;;;;5035717;28;20261;-75
2021/01/18 08:11:07;;;;;;;15.20;8.60;;;1.30;99.90;;;;;;5035756;28;20217;-75
2021/01/18 08:13:53;;;;;;;15.40;7.23;;;1.20;99.90;;;;;;5035544;28;20185;-75
2021/01/18 08:16:37;;;;;;;14.07;8.10;;;1.20;99.90;;;;;;5032088;28;20191;-75
2021/01/18 08:19:11;;;;;;;15.67;9.50;;;1.10;99.90;;;;;;5026653;28;20192;-74
2021/01/18 08:21:42;;;;;;;10.30;8.60;;;1.10;99.90;;;;;;5002657;28;20178;-74
2021/01/18 08:24:10;;;;;;;14.87;9.43;;;1.10;99.90;;;;;;5023581;28;20221;-74
2021/01/18 08:27:04;;;;;;;13.67;9.50;;;1.20;99.90;;;;;;5023121;28;20257;-74
2021/01/18 08:29:48;;;;;;;14.87;8.83;;;1.20;99.90;;;;;;5028469;28;20178;-74
2021/01/18 08:32:30;;;;;;;15.63;9.60;;;1.20;99.90;;;;;;5035391;28;20243;-74
2021/01/18 08:34:59;;;;;;;17.30;9.77;;;1.20;99.90;;;;;;5017352;28;20230;-74
2021/01/18 08:37:26;;;;;;;18.03;10.27;;;1.20;99.90;;;;;;5035229;28;20213;-74
2021/01/18 08:40:11;;;;;;;15.03;9.23;;;1.20;99.90;;;;;;5035506;28;20186;-74
2021/01/18 08:42:44;;;;;;;11.87;10.07;;;1.10;99.90;;;;;;5028363;28;20211;-74
2021/01/18 08:45:11;;;;;;;14.77;9.90;;;1.10;99.90;;;;;;5010949;28;20245;-75
2021/01/18 08:47:53;;;;;;;11.67;9.50;;;1.10;99.90;;;;;;5034725;28;20641;-75
2021/01/18 08:50:29;;;;;;;17.50;10.50;;;1.10;99.90;;;;;;5035137;28;20182;-75
2021/01/18 08:53:00;;;;;;;15.23;10.33;;;1.20;99.90;;;;;;5035017;28;20248;-75
2021/01/18 08:55:29;;;;;;;10.30;7.13;;;1.20;99.90;;;;;;5034787;28;20194;-75
2021/01/18 08:57:55;;;;;;;8.63;6.63;;;1.30;99.90;;;;;;5034769;28;20201;-76
2021/01/18 09:00:21;;;;;;;8.87;7.07;;;1.50;99.90;;;;;;5034638;28;20542;-74
2021/01/18 09:02:48;;;;;;;11.33;7.47;;;1.50;99.90;;;;;;5016798;28;20171;-73
2021/01/18 09:05:21;;;;;;;7.97;6.50;;;1.50;99.90;;;;;;5034674;28;20683;-74
2021/01/18 09:07:49;;;;;;;10.80;6.83;;;1.60;99.90;;;;;;5034580;28;20173;-74
2021/01/18 09:10:17;;;;;;;11.43;7.03;;;1.60;99.90;;;;;;5034794;28;20575;-74
2021/01/18 09:12:47;;;;;;;7.00;5.97;;;1.60;99.90;;;;;;5034647;28;20193;-74
2021/01/18 09:15:15;;;;;;;10.27;6.43;;;1.60;99.90;;;;;;5033225;28;20742;-74
2021/01/18 09:17:41;;;;;;;10.03;5.87;;;1.60;99.90;;;;;;5020754;28;20237;-74
2021/01/18 09:20:10;;;;;;;8.27;7.33;;;1.60;99.90;;;;;;5014029;28;20191;-74
2021/01/18 09:22:37;;;;;;;6.53;5.73;;;1.60;99.90;;;;;;5027821;28;20232;-74
2021/01/18 09:25:04;;;;;;;7.03;6.33;;;1.60;99.90;;;;;;5051590;23;20229;-77
2021/01/18 09:27:32;;;;;;;10.40;6.43;;;1.60;99.90;;;;;;5054177;28;20655;-76
2021/01/18 09:30:02;;;;;;;10.93;6.47;;;1.70;99.90;;;;;;5054362;28;20174;-77
2021/01/18 09:32:28;;;;;;;9.43;5.60;;;1.70;99.90;;;;;;5054038;28;20173;-77
2021/01/18 09:35:14;;;;;;;9.80;5.83;;;1.70;99.90;;;;;;5054602;28;20229;-77
2021/01/18 09:37:44;;;;;;;8.47;5.73;;;1.70;99.90;;;;;;5052317;28;20209;-78
2021/01/18 09:40:10;;;;;;;9.47;6.43;;;1.70;99.90;;;;;;5053141;28;20543;-77
2021/01/18 09:42:37;;;;;;;8.07;6.50;;;1.70;99.90;;;;;;5053973;28;20178;-77
2021/01/18 09:45:04;;;;;;;10.60;6.83;;;1.80;99.90;;;;;;5052782;28;20198;-76
2021/01/18 09:47:31;;;;;;;7.57;6.53;;;1.80;99.90;;;;;;5053694;28;20601;-77
2021/01/18 09:50:17;;;;;;;9.93;6.67;;;1.80;99.90;;;;;;5054280;28;20170;-76
2021/01/18 09:52:45;;;;;;;8.37;6.23;;;1.80;99.90;;;;;;5053878;28;20177;-78
2021/01/18 09:55:15;;;;;;;9.80;6.07;;;1.80;99.90;;;;;;5052782;28;20672;-76
2021/01/18 09:57:49;;;;;;;8.70;6.60;;;1.80;99.90;;;;;;5050963;28;20201;-77
2021/01/18 10:00:20;;;;;;;6.90;5.80;;;1.80;99.90;;;;;;5054410;28;20185;-79
2021/01/18 10:02:48;;;;;;;9.70;5.87;;;1.80;99.90;;;;;;5052572;28;20189;-78
2021/01/18 10:05:27;;;;;;;8.00;6.03;;;1.80;99.90;;;;;;5054682;28;20228;-78
2021/01/18 10:07:55;;;;;;;8.63;5.77;;;1.80;99.90;;;;;;5053049;28;20177;-78
2021/01/18 10:10:21;;;;;;;8.87;6.13;;;1.80;99.90;;;;;;5054120;28;20667;-77
2021/01/18 10:12:54;;;;;;;9.30;6.37;;;1.80;99.90;;;;;;5056230;28;20177;-77
2021/01/18 10:15:27;;;;;;;8.50;6.27;;;1.80;99.90;;;;;;5053132;28;20201;-77
2021/01/18 10:17:56;;;;;;;8.17;6.53;;;1.80;99.90;;;;;;5047991;28;20206;-79
2021/01/18 10:20:27;;;;;;;10.03;7.00;;;1.80;99.90;;;;;;5055588;28;20538;-76
2021/01/18 10:22:53;;;;;;;9.83;6.70;;;1.80;99.90;;;;;;5054309;28;20180;-78
2021/01/18 10:25:19;;;;;;;8.80;5.63;;;1.90;99.90;;;;;;5050649;28;20209;-78
2021/01/18 10:27:53;;;;;;;8.20;6.17;;;1.90;99.90;;;;;;5041957;28;20266;-77
2021/01/18 10:30:23;;;;;;;9.37;6.40;;;1.90;99.90;;;;;;5044213;28;20208;-78
2021/01/18 10:32:55;;;;;;;9.17;6.23;;;1.90;99.90;;;;;;5047686;28;20227;-79
2021/01/18 10:35:29;;;;;;;8.47;6.13;;;1.80;99.90;;;;;;5055356;28;20201;-78
2021/01/18 10:38:23;;;;;;;7.67;6.33;;;1.80;99.90;;;;;;5054115;28;20197;-79
2021/01/18 10:41:10;;;;;;;9.73;6.87;;;1.90;99.90;;;;;;5053475;28;20181;-78
2021/01/18 10:43:35;;;;;;;14.43;7.57;;;1.90;99.90;;;;;;5039200;28;20166;-78
2021/01/18 10:46:01;;;;;;;10.70;7.40;;;1.90;99.90;;;;;;5043076;28;20301;-78
2021/01/18 10:48:32;;;;;;;9.93;7.17;;;2.00;99.90;;;;;;5046484;28;20193;-78
2021/01/18 10:51:02;;;;;;;10.97;7.47;;;1.90;99.90;;;;;;5053887;28;20178;-77
2021/01/18 10:53:31;;;;;;;7.03;6.33;;;1.90;99.90;;;;;;5054437;28;20228;-78
2021/01/18 10:56:17;;;;;;;9.87;7.10;;;1.90;99.90;;;;;;5055045;28;20555;-78
2021/01/18 10:58:43;;;;;;;11.47;8.37;;;2.00;99.90;;;;;;5055619;28;20177;-79
2021/01/18 11:01:21;;;;;;;;;;;;;;;;;;;;;
2021/01/18 11:03:48;;;;;;;9.77;7.67;;;2.00;99.90;;;;;;5037789;28;20223;-79
2021/01/18 11:06:16;;;;;;;10.27;8.20;;;2.00;99.90;;;;;;5054299;28;20284;-79
2021/01/18 11:08:42;;;;;;;10.73;7.27;;;2.00;99.90;;;;;;5052161;28;20261;-78
2021/01/18 11:11:27;;;;;;;12.23;7.97;;;2.00;99.90;;;;;;5056173;28;20184;-79
2021/01/18 11:14:08;;;;;;;9.13;6.93;;;2.00;99.90;;;;;;5053959;28;20177;-80
2021/01/18 11:16:34;;;;;;;9.23;7.30;;;2.00;99.90;;;;;;5052522;28;20189;-80
2021/01/18 11:19:06;;;;;;;14.23;7.70;;;2.00;99.90;;;;;;5053703;28;20236;-79
2021/01/18 11:21:32;;;;;;;14.83;7.30;;;2.00;99.90;;;;;;5054970;28;20174;-79
2021/01/18 11:23:58;;;;;;;10.00;6.43;;;2.00;99.90;;;;;;5053395;28;20177;-79
2021/01/18 11:26:24;;;;;;;8.50;6.37;;;2.00;99.90;;;;;;5054804;28;20210;-80
2021/01/18 11:28:50;;;;;;;13.07;7.30;;;2.00;99.90;;;;;;5044966;28;20653;-80
2021/01/18 11:31:17;;;;;;;11.37;6.40;;;2.00;99.90;;;;;;5052730;28;20211;-80
2021/01/18 11:33:49;;;;;;;8.67;6.90;;;2.10;99.90;;;;;;5054426;28;20183;-80
2021/01/18 11:36:14;;;;;;;6.57;5.83;;;2.10;99.90;;;;;;5055025;28;20539;-82
2021/01/18 11:38:40;;;;;;;8.13;6.40;;;2.20;99.90;;;;;;5057938;28;20255;-80
2021/01/18 11:41:05;;;;;;;10.60;6.50;;;2.20;99.90;;;;;;5057507;28;20200;-81
2021/01/18 11:43:35;;;;;;;9.57;6.40;;;2.20;99.90;;;;;;5058529;28;20177;-81
2021/01/18 11:46:03;;;;;;;8.70;6.10;;;2.20;99.90;;;;;;5057963;28;20247;-80
2021/01/18 11:48:32;;;;;;;8.10;5.90;;;2.20;99.90;;;;;;5057758;28;20680;-81
2021/01/18 11:50:58;;;;;;;7.90;6.07;;;2.20;99.90;;;;;;5058261;28;20266;-80
2021/01/18 11:53:23;;;;;;;7.53;5.90;;;2.30;99.90;;;;;;5058642;28;20618;-78
2021/01/18 11:55:50;;;;;;;6.70;5.20;;;2.30;99.90;;;;;;5057279;28;20229;-80
2021/01/18 11:58:16;;;;;;;9.00;6.07;;;2.30;99.90;;;;;;5055204;28;20201;-80
2021/01/18 12:00:42;;;;;;;9.73;5.80;;;2.30;99.90;;;;;;5045570;28;20709;-80
2021/01/18 12:03:08;;;;;;;8.07;5.33;;;2.30;99.90;;;;;;5053376;28;20545;-81
2021/01/18 12:05:34;;;;;;;9.07;5.40;;;2.40;99.90;;;;;;5048720;28;20198;-81
2021/01/18 12:08:02;;;;;;;5.40;4.47;;;2.40;99.90;;;;;;5050524;28;20181;-80
2021/01/18 12:10:29;;;;;;;7.90;5.67;;;2.40;99.90;;;;;;5047208;28;20264;-80
2021/01/18 12:12:55;;;;;;;7.73;5.47;;;2.40;99.90;;;;;;5051802;28;20181;-81
2021/01/18 12:15:22;;;;;;;8.77;6.07;;;2.30;99.90;;;;;;5054072;28;20283;-81
2021/01/18 12:17:48;;;;;;;5.83;5.33;;;2.40;99.90;;;;;;5049084;28;20198;-82
2021/01/18 12:20:19;;;;;;;7.20;6.00;;;2.40;99.90;;;;;;5052369;28;20200;-80
2021/01/18 12:22:44;;;;;;;8.83;6.33;;;2.40;99.90;;;;;;5053324;28;20702;-81
2021/01/18 12:25:11;;;;;;;7.87;5.40;;;2.40;99.90;;;;;;5048618;28;20214;-81
2021/01/18 12:27:37;;;;;;;8.77;5.33;;;2.40;99.90;;;;;;5053284;28;20605;-80
2021/01/18 12:30:04;;;;;;;5.97;5.40;;;2.30;99.90;;;;;;5053458;28;20205;-81
2021/01/18 12:32:33;;;;;;;7.60;5.83;;;2.40;99.90;;;;;;5053301;28;20181;-82
2021/01/18 12:34:58;;;;;;;8.57;6.50;;;2.60;99.90;;;;;;5055302;28;20202;-81
2021/01/18 12:37:25;;;;;;;9.73;6.40;;;2.40;99.90;;;;;;5056029;28;20202;-80
2021/01/18 12:39:51;;;;;;;9.13;6.50;;;2.40;99.90;;;;;;5055353;28;20212;-82
2021/01/18 12:42:16;;;;;;;9.23;5.90;;;2.30;99.90;;;;;;5058319;28;20182;-81
2021/01/18 12:44:42;;;;;;;5.97;5.23;;;2.20;99.90;;;;;;5061419;28;20202;-82
2021/01/18 12:47:09;;;;;;;5.77;5.13;;;2.20;99.90;;;;;;5061347;28;20190;-81
2021/01/18 12:49:35;;;;;;;7.70;5.17;;;2.10;99.90;;;;;;5039861;28;20190;-82
2021/01/18 12:52:00;;;;;;;7.17;5.77;;;2.10;99.90;;;;;;5069209;28;20186;-82
2021/01/18 12:54:26;;;;;;;9.40;5.20;;;2.20;99.90;;;;;;5061584;28;20209;-82
2021/01/18 12:56:53;;;;;;;10.07;5.80;;;2.10;99.90;;;;;;5060311;28;20214;-82
2021/01/18 12:59:19;;;;;;;7.67;5.60;;;2.10;99.90;;;;;;5059423;28;20181;-81
2021/01/18 13:01:45;;;;;;;5.77;5.17;;;2.10;99.90;;;;;;5061393;28;20193;-81
2021/01/18 13:04:11;;;;;;;8.73;6.00;;;2.20;99.90;;;;;;5061497;28;20181;-81